Terminal Aerodrome Forecast
Issued by NWS

Home | Current Version | Previous Version | Text Only | Print | Product List | Glossary On
Versions: 1 2 3 4 5 6 7 8 9 10 11 12 13 14 15 16 17 18 19 20 21 22 23 24 25 26 27 28 29 30 31 32 33 34 35 36 37
000
FTPQ31 PGUM 252033 RRL
TAFGRO
TAF

TAF
PGWT 252033Z 2521/2618 10009KT P6SM VCTS SCT015CB SCT035 BKN100
      TEMPO 2521/2523 5SM SHRA SCT015 OVC025
     FM260200 12011KT P6SM VCSH SCT015 SCT030 BKN120
     FM260900 09008KT P6SM VCSH SCT015 BKN120=

USA.gov is the U.S. government's official web portal to all federal, state and local government web resources and services.